sensor_id;sensor_type;location;lat;lon;timestamp;P1;durP1;ratioP1;P2;durP2;ratioP2
8232;SDS011;4157;48.074;9.952;2023-04-24T00:01:54;2.00;;;1.08;;
8232;SDS011;4157;48.074;9.952;2023-04-24T00:04:22;3.55;;;1.13;;
8232;SDS011;4157;48.074;9.952;2023-04-24T00:06:51;1.77;;;1.00;;
8232;SDS011;4157;48.074;9.952;2023-04-24T00:09:23;1.73;;;0.90;;
8232;SDS011;4157;48.074;9.952;2023-04-24T00:11:53;4.00;;;1.08;;
8232;SDS011;4157;48.074;9.952;2023-04-24T00:14:21;1.80;;;0.80;;
8232;SDS011;4157;48.074;9.952;2023-04-24T00:16:49;1.88;;;0.80;;
8232;SDS011;4157;48.074;9.952;2023-04-24T00:19:17;1.52;;;0.90;;
8232;SDS011;4157;48.074;9.952;2023-04-24T00:21:46;2.25;;;1.08;;
8232;SDS011;4157;48.074;9.952;2023-04-24T00:24:16;1.95;;;1.10;;
8232;SDS011;4157;48.074;9.952;2023-04-24T00:26:44;2.42;;;1.08;;
8232;SDS011;4157;48.074;9.952;2023-04-24T00:29:13;2.70;;;1.10;;
8232;SDS011;4157;48.074;9.952;2023-04-24T00:31:41;2.10;;;0.93;;
8232;SDS011;4157;48.074;9.952;2023-04-24T00:34:09;2.42;;;1.17;;
8232;SDS011;4157;48.074;9.952;2023-04-24T00:36:37;2.05;;;0.90;;
8232;SDS011;4157;48.074;9.952;2023-04-24T00:39:05;2.13;;;0.85;;
8232;SDS011;4157;48.074;9.952;2023-04-24T00:41:34;3.00;;;0.90;;
8232;SDS011;4157;48.074;9.952;2023-04-24T00:44:02;3.45;;;1.10;;
8232;SDS011;4157;48.074;9.952;2023-04-24T00:46:31;1.98;;;1.00;;
8232;SDS011;4157;48.074;9.952;2023-04-24T00:48:59;3.72;;;0.93;;
8232;SDS011;4157;48.074;9.952;2023-04-24T00:51:27;2.35;;;1.25;;
8232;SDS011;4157;48.074;9.952;2023-04-24T00:53:56;2.10;;;1.00;;
8232;SDS011;4157;48.074;9.952;2023-04-24T00:56:24;2.40;;;1.30;;
8232;SDS011;4157;48.074;9.952;2023-04-24T00:58:52;2.58;;;0.90;;
8232;SDS011;4157;48.074;9.952;2023-04-24T01:01:19;3.65;;;1.10;;
8232;SDS011;4157;48.074;9.952;2023-04-24T01:03:50;4.72;;;1.20;;
8232;SDS011;4157;48.074;9.952;2023-04-24T01:06:18;2.42;;;1.00;;
8232;SDS011;4157;48.074;9.952;2023-04-24T01:08:46;4.78;;;1.33;;
8232;SDS011;4157;48.074;9.952;2023-04-24T01:11:15;2.25;;;1.10;;
8232;SDS011;4157;48.074;9.952;2023-04-24T01:13:44;2.38;;;1.23;;
8232;SDS011;4157;48.074;9.952;2023-04-24T01:16:12;3.05;;;1.30;;
8232;SDS011;4157;48.074;9.952;2023-04-24T01:18:40;3.08;;;1.20;;
8232;SDS011;4157;48.074;9.952;2023-04-24T01:21:09;3.50;;;1.38;;
8232;SDS011;4157;48.074;9.952;2023-04-24T01:23:41;2.70;;;1.30;;
8232;SDS011;4157;48.074;9.952;2023-04-24T01:26:09;2.45;;;1.30;;
8232;SDS011;4157;48.074;9.952;2023-04-24T01:28:37;4.30;;;1.10;;
8232;SDS011;4157;48.074;9.952;2023-04-24T01:31:05;2.65;;;1.20;;
8232;SDS011;4157;48.074;9.952;2023-04-24T01:33:32;2.90;;;1.20;;
8232;SDS011;4157;48.074;9.952;2023-04-24T01:36:00;3.20;;;1.00;;
8232;SDS011;4157;48.074;9.952;2023-04-24T01:38:28;1.85;;;1.20;;
8232;SDS011;4157;48.074;9.952;2023-04-24T01:40:57;2.40;;;1.20;;
8232;SDS011;4157;48.074;9.952;2023-04-24T01:43:25;2.10;;;1.10;;
8232;SDS011;4157;48.074;9.952;2023-04-24T01:45:52;3.53;;;1.10;;
8232;SDS011;4157;48.074;9.952;2023-04-24T01:48:20;3.40;;;1.42;;
8232;SDS011;4157;48.074;9.952;2023-04-24T01:50:48;3.35;;;1.38;;
8232;SDS011;4157;48.074;9.952;2023-04-24T01:53:16;2.83;;;1.45;;
8232;SDS011;4157;48.074;9.952;2023-04-24T01:55:43;1.90;;;0.80;;
8232;SDS011;4157;48.074;9.952;2023-04-24T01:58:14;2.88;;;1.20;;
8232;SDS011;4157;48.074;9.952;2023-04-24T02:00:41;2.25;;;1.02;;
8232;SDS011;4157;48.074;9.952;2023-04-24T02:03:09;1.92;;;1.08;;
8232;SDS011;4157;48.074;9.952;2023-04-24T02:05:37;2.03;;;1.10;;
8232;SDS011;4157;48.074;9.952;2023-04-24T02:08:05;2.13;;;0.95;;
8232;SDS011;4157;48.074;9.952;2023-04-24T02:10:36;2.78;;;1.27;;
8232;SDS011;4157;48.074;9.952;2023-04-24T02:13:04;2.38;;;1.20;;
8232;SDS011;4157;48.074;9.952;2023-04-24T02:15:34;2.25;;;1.17;;
8232;SDS011;4157;48.074;9.952;2023-04-24T02:18:03;3.30;;;1.35;;
8232;SDS011;4157;48.074;9.952;2023-04-24T02:20:32;3.35;;;1.00;;
8232;SDS011;4157;48.074;9.952;2023-04-24T02:23:01;2.78;;;1.20;;
8232;SDS011;4157;48.074;9.952;2023-04-24T02:25:28;2.20;;;1.10;;
8232;SDS011;4157;48.074;9.952;2023-04-24T02:27:56;2.65;;;0.90;;
8232;SDS011;4157;48.074;9.952;2023-04-24T02:30:25;2.75;;;1.00;;
8232;SDS011;4157;48.074;9.952;2023-04-24T02:32:54;2.60;;;1.10;;
8232;SDS011;4157;48.074;9.952;2023-04-24T02:35:22;2.22;;;1.00;;
8232;SDS011;4157;48.074;9.952;2023-04-24T02:37:50;2.30;;;0.90;;
8232;SDS011;4157;48.074;9.952;2023-04-24T02:40:18;2.70;;;1.20;;
8232;SDS011;4157;48.074;9.952;2023-04-24T02:42:46;1.67;;;0.85;;
8232;SDS011;4157;48.074;9.952;2023-04-24T02:45:14;4.55;;;1.02;;
8232;SDS011;4157;48.074;9.952;2023-04-24T02:47:42;2.25;;;1.05;;
8232;SDS011;4157;48.074;9.952;2023-04-24T02:50:11;2.58;;;1.00;;
8232;SDS011;4157;48.074;9.952;2023-04-24T02:52:38;2.20;;;0.90;;
8232;SDS011;4157;48.074;9.952;2023-04-24T02:55:06;2.08;;;0.95;;
8232;SDS011;4157;48.074;9.952;2023-04-24T02:57:34;3.45;;;0.90;;
8232;SDS011;4157;48.074;9.952;2023-04-24T03:00:02;2.30;;;0.90;;
8232;SDS011;4157;48.074;9.952;2023-04-24T03:02:32;3.65;;;1.00;;
8232;SDS011;4157;48.074;9.952;2023-04-24T03:05:00;2.33;;;1.10;;
8232;SDS011;4157;48.074;9.952;2023-04-24T03:07:30;1.67;;;0.90;;
8232;SDS011;4157;48.074;9.952;2023-04-24T03:09:58;2.08;;;1.00;;
8232;SDS011;4157;48.074;9.952;2023-04-24T03:12:26;2.42;;;1.00;;
8232;SDS011;4157;48.074;9.952;2023-04-24T03:14:54;3.03;;;0.90;;
8232;SDS011;4157;48.074;9.952;2023-04-24T03:17:22;2.95;;;1.40;;
8232;SDS011;4157;48.074;9.952;2023-04-24T03:19:50;1.70;;;0.80;;
8232;SDS011;4157;48.074;9.952;2023-04-24T03:22:17;3.00;;;0.90;;
8232;SDS011;4157;48.074;9.952;2023-04-24T03:24:47;1.73;;;0.65;;
8232;SDS011;4157;48.074;9.952;2023-04-24T03:27:17;1.63;;;0.90;;
8232;SDS011;4157;48.074;9.952;2023-04-24T03:29:52;1.52;;;0.70;;
8232;SDS011;4157;48.074;9.952;2023-04-24T03:32:23;1.67;;;0.70;;
8232;SDS011;4157;48.074;9.952;2023-04-24T03:34:51;3.67;;;1.08;;
8232;SDS011;4157;48.074;9.952;2023-04-24T03:37:20;2.92;;;0.90;;
8232;SDS011;4157;48.074;9.952;2023-04-24T03:39:59;2.33;;;0.80;;
8232;SDS011;4157;48.074;9.952;2023-04-24T03:42:27;1.92;;;0.90;;
8232;SDS011;4157;48.074;9.952;2023-04-24T03:44:55;1.65;;;0.60;;
8232;SDS011;4157;48.074;9.952;2023-04-24T03:47:29;2.07;;;0.80;;
8232;SDS011;4157;48.074;9.952;2023-04-24T03:50:00;2.08;;;0.80;;
8232;SDS011;4157;48.074;9.952;2023-04-24T03:52:28;1.75;;;0.60;;
8232;SDS011;4157;48.074;9.952;2023-04-24T03:54:56;2.63;;;1.00;;
8232;SDS011;4157;48.074;9.952;2023-04-24T03:57:26;3.13;;;0.60;;
8232;SDS011;4157;48.074;9.952;2023-04-24T04:00:06;2.25;;;0.70;;
8232;SDS011;4157;48.074;9.952;2023-04-24T04:02:40;1.35;;;0.70;;
8232;SDS011;4157;48.074;9.952;2023-04-24T04:05:09;1.60;;;0.70;;
8232;SDS011;4157;48.074;9.952;2023-04-24T04:07:36;1.63;;;0.73;;
8232;SDS011;4157;48.074;9.952;2023-04-24T04:10:05;1.55;;;0.75;;
8232;SDS011;4157;48.074;9.952;2023-04-24T04:12:37;1.60;;;0.60;;
8232;SDS011;4157;48.074;9.952;2023-04-24T04:15:05;1.38;;;0.55;;
8232;SDS011;4157;48.074;9.952;2023-04-24T04:17:33;1.55;;;0.70;;
8232;SDS011;4157;48.074;9.952;2023-04-24T04:20:02;1.50;;;0.82;;
8232;SDS011;4157;48.074;9.952;2023-04-24T04:22:33;1.88;;;0.82;;
8232;SDS011;4157;48.074;9.952;2023-04-24T04:25:02;1.95;;;0.88;;
8232;SDS011;4157;48.074;9.952;2023-04-24T04:27:30;1.38;;;0.75;;
8232;SDS011;4157;48.074;9.952;2023-04-24T04:30:05;3.88;;;0.85;;
8232;SDS011;4157;48.074;9.952;2023-04-24T04:32:40;1.95;;;1.00;;
8232;SDS011;4157;48.074;9.952;2023-04-24T04:35:08;1.35;;;0.80;;
8232;SDS011;4157;48.074;9.952;2023-04-24T04:37:36;2.28;;;1.00;;
8232;SDS011;4157;48.074;9.952;2023-04-24T04:40:13;1.92;;;0.70;;
8232;SDS011;4157;48.074;9.952;2023-04-24T04:42:50;1.58;;;0.95;;
8232;SDS011;4157;48.074;9.952;2023-04-24T04:45:21;1.35;;;0.70;;
8232;SDS011;4157;48.074;9.952;2023-04-24T04:48:10;1.33;;;0.70;;
8232;SDS011;4157;48.074;9.952;2023-04-24T04:50:40;1.65;;;0.70;;
8232;SDS011;4157;48.074;9.952;2023-04-24T04:53:08;0.95;;;0.65;;
8232;SDS011;4157;48.074;9.952;2023-04-24T04:55:38;1.10;;;0.63;;
8232;SDS011;4157;48.074;9.952;2023-04-24T04:58:11;1.92;;;0.57;;
8232;SDS011;4157;48.074;9.952;2023-04-24T05:00:40;1.55;;;0.60;;
8232;SDS011;4157;48.074;9.952;2023-04-24T05:03:17;3.13;;;0.80;;
8232;SDS011;4157;48.074;9.952;2023-04-24T05:05:44;2.25;;;0.73;;
8232;SDS011;4157;48.074;9.952;2023-04-24T05:08:14;2.03;;;0.50;;
8232;SDS011;4157;48.074;9.952;2023-04-24T05:10:42;2.50;;;0.75;;
8232;SDS011;4157;48.074;9.952;2023-04-24T05:13:10;1.80;;;0.63;;
8232;SDS011;4157;48.074;9.952;2023-04-24T05:15:39;0.70;;;0.50;;
8232;SDS011;4157;48.074;9.952;2023-04-24T05:18:07;1.85;;;0.80;;
8232;SDS011;4157;48.074;9.952;2023-04-24T05:20:35;1.60;;;0.60;;
8232;SDS011;4157;48.074;9.952;2023-04-24T05:23:03;1.52;;;0.60;;
8232;SDS011;4157;48.074;9.952;2023-04-24T05:25:31;2.60;;;0.60;;
8232;SDS011;4157;48.074;9.952;2023-04-24T05:28:06;1.20;;;0.68;;
8232;SDS011;4157;48.074;9.952;2023-04-24T05:30:34;0.98;;;0.52;;
8232;SDS011;4157;48.074;9.952;2023-04-24T05:33:03;2.20;;;1.08;;
8232;SDS011;4157;48.074;9.952;2023-04-24T05:35:33;2.40;;;1.20;;
8232;SDS011;4157;48.074;9.952;2023-04-24T05:38:01;1.02;;;0.65;;
8232;SDS011;4157;48.074;9.952;2023-04-24T05:40:29;2.00;;;0.88;;
8232;SDS011;4157;48.074;9.952;2023-04-24T05:42:57;3.13;;;1.15;;
8232;SDS011;4157;48.074;9.952;2023-04-24T05:45:25;2.10;;;0.90;;
8232;SDS011;4157;48.074;9.952;2023-04-24T05:47:52;4.13;;;0.93;;
8232;SDS011;4157;48.074;9.952;2023-04-24T05:50:23;0.95;;;0.60;;
8232;SDS011;4157;48.074;9.952;2023-04-24T05:52:51;1.30;;;0.70;;
8232;SDS011;4157;48.074;9.952;2023-04-24T05:55:25;4.10;;;0.60;;
8232;SDS011;4157;48.074;9.952;2023-04-24T05:57:53;2.88;;;0.90;;
8232;SDS011;4157;48.074;9.952;2023-04-24T06:00:21;1.17;;;0.47;;
8232;SDS011;4157;48.074;9.952;2023-04-24T06:02:59;2.50;;;1.08;;
8232;SDS011;4157;48.074;9.952;2023-04-24T06:05:28;1.98;;;0.80;;
8232;SDS011;4157;48.074;9.952;2023-04-24T06:07:56;1.92;;;1.00;;
8232;SDS011;4157;48.074;9.952;2023-04-24T06:10:28;2.20;;;0.73;;
8232;SDS011;4157;48.074;9.952;2023-04-24T06:12:57;1.45;;;0.80;;
8232;SDS011;4157;48.074;9.952;2023-04-24T06:15:27;5.97;;;3.00;;
8232;SDS011;4157;48.074;9.952;2023-04-24T06:18:17;1.73;;;0.55;;
8232;SDS011;4157;48.074;9.952;2023-04-24T06:20:48;2.28;;;0.65;;
8232;SDS011;4157;48.074;9.952;2023-04-24T06:23:16;1.27;;;0.50;;
8232;SDS011;4157;48.074;9.952;2023-04-24T06:25:44;1.63;;;0.32;;
8232;SDS011;4157;48.074;9.952;2023-04-24T06:28:11;0.63;;;0.40;;
8232;SDS011;4157;48.074;9.952;2023-04-24T06:30:39;0.30;;;0.30;;
8232;SDS011;4157;48.074;9.952;2023-04-24T06:33:07;1.73;;;0.60;;
8232;SDS011;4157;48.074;9.952;2023-04-24T06:35:36;1.60;;;0.50;;
8232;SDS011;4157;48.074;9.952;2023-04-24T06:38:05;0.70;;;0.40;;
8232;SDS011;4157;48.074;9.952;2023-04-24T06:40:33;1.55;;;0.50;;
8232;SDS011;4157;48.074;9.952;2023-04-24T06:43:00;0.40;;;0.40;;
8232;SDS011;4157;48.074;9.952;2023-04-24T06:45:28;1.63;;;0.60;;
8232;SDS011;4157;48.074;9.952;2023-04-24T06:47:56;1.65;;;0.90;;
8232;SDS011;4157;48.074;9.952;2023-04-24T06:50:24;1.40;;;0.88;;
8232;SDS011;4157;48.074;9.952;2023-04-24T06:52:52;2.45;;;0.95;;
8232;SDS011;4157;48.074;9.952;2023-04-24T06:55:21;1.55;;;1.00;;
8232;SDS011;4157;48.074;9.952;2023-04-24T06:57:48;2.97;;;0.93;;
8232;SDS011;4157;48.074;9.952;2023-04-24T07:00:16;1.98;;;1.00;;
8232;SDS011;4157;48.074;9.952;2023-04-24T07:02:44;3.25;;;1.00;;
8232;SDS011;4157;48.074;9.952;2023-04-24T07:05:12;2.08;;;0.93;;
8232;SDS011;4157;48.074;9.952;2023-04-24T07:07:40;2.55;;;0.95;;
8232;SDS011;4157;48.074;9.952;2023-04-24T07:10:09;4.03;;;1.40;;
8232;SDS011;4157;48.074;9.952;2023-04-24T07:12:38;3.08;;;1.52;;
8232;SDS011;4157;48.074;9.952;2023-04-24T07:15:07;2.97;;;1.48;;
8232;SDS011;4157;48.074;9.952;2023-04-24T07:17:34;2.85;;;1.40;;
8232;SDS011;4157;48.074;9.952;2023-04-24T07:20:04;2.22;;;1.08;;
8232;SDS011;4157;48.074;9.952;2023-04-24T07:22:34;2.97;;;1.30;;
8232;SDS011;4157;48.074;9.952;2023-04-24T07:25:02;3.03;;;1.10;;
8232;SDS011;4157;48.074;9.952;2023-04-24T07:27:30;2.60;;;1.55;;
8232;SDS011;4157;48.074;9.952;2023-04-24T07:29:59;3.55;;;1.90;;
8232;SDS011;4157;48.074;9.952;2023-04-24T07:32:27;3.92;;;2.13;;
8232;SDS011;4157;48.074;9.952;2023-04-24T07:34:55;4.10;;;2.10;;
8232;SDS011;4157;48.074;9.952;2023-04-24T07:37:23;3.83;;;2.10;;
8232;SDS011;4157;48.074;9.952;2023-04-24T07:39:51;3.42;;;1.92;;
8232;SDS011;4157;48.074;9.952;2023-04-24T07:42:18;6.43;;;3.78;;
8232;SDS011;4157;48.074;9.952;2023-04-24T07:44:46;4.40;;;1.85;;
8232;SDS011;4157;48.074;9.952;2023-04-24T07:47:15;3.00;;;1.40;;
8232;SDS011;4157;48.074;9.952;2023-04-24T07:49:43;6.65;;;4.60;;
8232;SDS011;4157;48.074;9.952;2023-04-24T07:52:11;5.80;;;2.90;;
8232;SDS011;4157;48.074;9.952;2023-04-24T07:54:39;7.07;;;3.25;;
8232;SDS011;4157;48.074;9.952;2023-04-24T07:57:06;7.28;;;2.13;;
8232;SDS011;4157;48.074;9.952;2023-04-24T07:59:34;6.57;;;2.33;;
8232;SDS011;4157;48.074;9.952;2023-04-24T08:02:02;7.88;;;4.20;;
8232;SDS011;4157;48.074;9.952;2023-04-24T08:04:33;2.65;;;1.13;;
8232;SDS011;4157;48.074;9.952;2023-04-24T08:07:00;3.45;;;1.10;;
8232;SDS011;4157;48.074;9.952;2023-04-24T08:09:28;2.67;;;1.33;;
8232;SDS011;4157;48.074;9.952;2023-04-24T08:11:56;7.18;;;4.55;;
8232;SDS011;4157;48.074;9.952;2023-04-24T08:14:23;7.03;;;4.45;;
8232;SDS011;4157;48.074;9.952;2023-04-24T08:16:52;6.57;;;3.45;;
8232;SDS011;4157;48.074;9.952;2023-04-24T08:19:19;7.32;;;5.05;;
8232;SDS011;4157;48.074;9.952;2023-04-24T08:21:48;3.85;;;1.80;;
8232;SDS011;4157;48.074;9.952;2023-04-24T08:24:16;2.58;;;1.10;;
8232;SDS011;4157;48.074;9.952;2023-04-24T08:26:44;3.78;;;1.50;;
8232;SDS011;4157;48.074;9.952;2023-04-24T08:29:12;3.95;;;1.50;;
8232;SDS011;4157;48.074;9.952;2023-04-24T08:31:39;2.88;;;1.60;;
8232;SDS011;4157;48.074;9.952;2023-04-24T08:34:07;2.95;;;1.30;;
8232;SDS011;4157;48.074;9.952;2023-04-24T08:36:35;2.40;;;1.23;;
8232;SDS011;4157;48.074;9.952;2023-04-24T08:39:04;2.63;;;1.27;;
8232;SDS011;4157;48.074;9.952;2023-04-24T08:41:32;4.57;;;1.67;;
8232;SDS011;4157;48.074;9.952;2023-04-24T08:44:01;2.95;;;1.05;;
8232;SDS011;4157;48.074;9.952;2023-04-24T08:46:29;3.45;;;1.00;;
8232;SDS011;4157;48.074;9.952;2023-04-24T08:48:57;3.33;;;1.30;;
8232;SDS011;4157;48.074;9.952;2023-04-24T08:51:26;2.38;;;0.93;;
8232;SDS011;4157;48.074;9.952;2023-04-24T08:53:53;3.25;;;1.20;;
8232;SDS011;4157;48.074;9.952;2023-04-24T08:56:23;6.65;;;3.17;;
8232;SDS011;4157;48.074;9.952;2023-04-24T08:58:51;8.95;;;6.72;;
8232;SDS011;4157;48.074;9.952;2023-04-24T09:01:19;6.55;;;3.83;;
8232;SDS011;4157;48.074;9.952;2023-04-24T09:03:47;4.82;;;2.80;;
8232;SDS011;4157;48.074;9.952;2023-04-24T09:06:16;3.13;;;1.00;;
8232;SDS011;4157;48.074;9.952;2023-04-24T09:08:45;3.35;;;1.13;;
8232;SDS011;4157;48.074;9.952;2023-04-24T09:11:13;0.95;;;0.63;;
8232;SDS011;4157;48.074;9.952;2023-04-24T09:13:42;2.00;;;0.80;;
8232;SDS011;4157;48.074;9.952;2023-04-24T09:16:10;3.58;;;0.90;;
8232;SDS011;4157;48.074;9.952;2023-04-24T09:18:39;2.78;;;1.27;;
8232;SDS011;4157;48.074;9.952;2023-04-24T09:21:08;4.55;;;1.83;;
8232;SDS011;4157;48.074;9.952;2023-04-24T09:23:36;2.55;;;1.40;;
8232;SDS011;4157;48.074;9.952;2023-04-24T09:26:04;3.00;;;1.80;;
8232;SDS011;4157;48.074;9.952;2023-04-24T09:28:33;3.03;;;1.50;;
8232;SDS011;4157;48.074;9.952;2023-04-24T09:31:04;2.88;;;1.40;;
8232;SDS011;4157;48.074;9.952;2023-04-24T09:33:32;4.70;;;1.63;;
8232;SDS011;4157;48.074;9.952;2023-04-24T09:36:00;3.53;;;1.48;;
8232;SDS011;4157;48.074;9.952;2023-04-24T09:38:31;4.72;;;1.85;;
8232;SDS011;4157;48.074;9.952;2023-04-24T09:40:59;4.53;;;1.58;;
8232;SDS011;4157;48.074;9.952;2023-04-24T09:43:28;3.28;;;1.40;;
8232;SDS011;4157;48.074;9.952;2023-04-24T09:45:57;2.28;;;1.25;;
8232;SDS011;4157;48.074;9.952;2023-04-24T09:48:36;5.13;;;1.35;;
8232;SDS011;4157;48.074;9.952;2023-04-24T09:51:04;5.07;;;1.20;;
8232;SDS011;4157;48.074;9.952;2023-04-24T09:53:36;2.90;;;1.20;;
8232;SDS011;4157;48.074;9.952;2023-04-24T09:56:07;1.52;;;1.02;;
8232;SDS011;4157;48.074;9.952;2023-04-24T09:58:36;2.92;;;1.27;;
8232;SDS011;4157;48.074;9.952;2023-04-24T10:01:04;3.28;;;1.20;;
8232;SDS011;4157;48.074;9.952;2023-04-24T10:03:32;3.42;;;1.70;;
8232;SDS011;4157;48.074;9.952;2023-04-24T10:06:01;3.70;;;1.60;;
8232;SDS011;4157;48.074;9.952;2023-04-24T10:08:34;2.47;;;1.10;;
8232;SDS011;4157;48.074;9.952;2023-04-24T10:11:02;2.70;;;1.27;;
8232;SDS011;4157;48.074;9.952;2023-04-24T10:13:30;3.92;;;1.50;;
8232;SDS011;4157;48.074;9.952;2023-04-24T10:15:57;2.47;;;1.20;;
8232;SDS011;4157;48.074;9.952;2023-04-24T10:18:26;5.45;;;1.35;;
8232;SDS011;4157;48.074;9.952;2023-04-24T10:20:53;3.15;;;1.17;;
8232;SDS011;4157;48.074;9.952;2023-04-24T10:23:23;4.55;;;1.40;;
8232;SDS011;4157;48.074;9.952;2023-04-24T10:25:52;7.47;;;1.23;;
8232;SDS011;4157;48.074;9.952;2023-04-24T10:28:19;6.13;;;1.55;;
8232;SDS011;4157;48.074;9.952;2023-04-24T10:30:48;2.67;;;1.23;;
8232;SDS011;4157;48.074;9.952;2023-04-24T10:33:16;2.92;;;1.45;;
8232;SDS011;4157;48.074;9.952;2023-04-24T10:35:45;4.53;;;1.23;;
8232;SDS011;4157;48.074;9.952;2023-04-24T10:38:15;2.78;;;1.05;;
8232;SDS011;4157;48.074;9.952;2023-04-24T10:40:45;3.33;;;1.13;;
8232;SDS011;4157;48.074;9.952;2023-04-24T10:43:13;2.70;;;1.38;;
8232;SDS011;4157;48.074;9.952;2023-04-24T10:45:59;3.95;;;1.50;;
8232;SDS011;4157;48.074;9.952;2023-04-24T10:48:28;3.97;;;1.38;;
8232;SDS011;4157;48.074;9.952;2023-04-24T10:50:55;2.25;;;1.20;;
8232;SDS011;4157;48.074;9.952;2023-04-24T10:53:24;3.72;;;1.45;;
8232;SDS011;4157;48.074;9.952;2023-04-24T10:55:58;2.13;;;0.98;;
8232;SDS011;4157;48.074;9.952;2023-04-24T10:58:35;4.13;;;1.10;;
8232;SDS011;4157;48.074;9.952;2023-04-24T11:01:03;3.40;;;1.23;;
8232;SDS011;4157;48.074;9.952;2023-04-24T11:03:33;3.90;;;1.90;;
8232;SDS011;4157;48.074;9.952;2023-04-24T11:06:02;5.07;;;1.60;;
8232;SDS011;4157;48.074;9.952;2023-04-24T11:08:31;3.78;;;1.48;;
8232;SDS011;4157;48.074;9.952;2023-04-24T11:11:02;3.95;;;1.33;;
8232;SDS011;4157;48.074;9.952;2023-04-24T11:16:20;3.80;;;1.40;;
8232;SDS011;4157;48.074;9.952;2023-04-24T11:18:50;3.00;;;1.20;;
8232;SDS011;4157;48.074;9.952;2023-04-24T11:21:20;4.68;;;1.30;;
8232;SDS011;4157;48.074;9.952;2023-04-24T11:23:47;3.47;;;1.30;;
8232;SDS011;4157;48.074;9.952;2023-04-24T11:26:21;2.40;;;1.05;;
8232;SDS011;4157;48.074;9.952;2023-04-24T11:28:55;4.57;;;1.27;;
8232;SDS011;4157;48.074;9.952;2023-04-24T11:31:39;3.63;;;1.45;;
8232;SDS011;4157;48.074;9.952;2023-04-24T11:34:08;4.07;;;1.73;;
8232;SDS011;4157;48.074;9.952;2023-04-24T11:36:36;4.15;;;1.92;;
8232;SDS011;4157;48.074;9.952;2023-04-24T11:39:04;3.50;;;1.48;;
8232;SDS011;4157;48.074;9.952;2023-04-24T11:41:33;4.15;;;1.90;;
8232;SDS011;4157;48.074;9.952;2023-04-24T11:44:02;4.43;;;2.22;;
8232;SDS011;4157;48.074;9.952;2023-04-24T11:46:30;2.78;;;1.02;;
8232;SDS011;4157;48.074;9.952;2023-04-24T11:48:58;3.13;;;1.20;;
8232;SDS011;4157;48.074;9.952;2023-04-24T11:51:26;3.00;;;1.23;;
8232;SDS011;4157;48.074;9.952;2023-04-24T11:53:55;3.10;;;1.15;;
8232;SDS011;4157;48.074;9.952;2023-04-24T11:56:23;3.40;;;1.27;;
8232;SDS011;4157;48.074;9.952;2023-04-24T11:58:53;2.92;;;1.20;;
8232;SDS011;4157;48.074;9.952;2023-04-24T12:01:21;7.07;;;1.10;;
8232;SDS011;4157;48.074;9.952;2023-04-24T12:03:49;4.03;;;1.08;;
8232;SDS011;4157;48.074;9.952;2023-04-24T12:06:17;4.57;;;1.40;;
8232;SDS011;4157;48.074;9.952;2023-04-24T12:08:46;3.53;;;1.27;;
8232;SDS011;4157;48.074;9.952;2023-04-24T12:11:15;5.03;;;1.40;;
8232;SDS011;4157;48.074;9.952;2023-04-24T12:13:43;4.65;;;1.33;;
8232;SDS011;4157;48.074;9.952;2023-04-24T12:16:12;2.58;;;1.23;;
8232;SDS011;4157;48.074;9.952;2023-04-24T12:18:43;2.25;;;1.13;;
8232;SDS011;4157;48.074;9.952;2023-04-24T12:21:15;3.55;;;1.10;;
8232;SDS011;4157;48.074;9.952;2023-04-24T12:23:43;2.95;;;1.00;;
8232;SDS011;4157;48.074;9.952;2023-04-24T12:26:11;2.60;;;1.10;;
8232;SDS011;4157;48.074;9.952;2023-04-24T12:28:39;2.88;;;1.20;;
8232;SDS011;4157;48.074;9.952;2023-04-24T12:31:06;2.38;;;1.00;;
8232;SDS011;4157;48.074;9.952;2023-04-24T12:33:36;3.80;;;1.13;;
8232;SDS011;4157;48.074;9.952;2023-04-24T12:36:04;5.03;;;1.23;;
8232;SDS011;4157;48.074;9.952;2023-04-24T12:38:32;2.78;;;0.95;;
8232;SDS011;4157;48.074;9.952;2023-04-24T12:41:06;3.72;;;1.55;;
8232;SDS011;4157;48.074;9.952;2023-04-24T12:43:34;2.92;;;1.15;;
8232;SDS011;4157;48.074;9.952;2023-04-24T12:46:02;2.35;;;1.00;;
8232;SDS011;4157;48.074;9.952;2023-04-24T12:48:30;4.32;;;1.20;;
8232;SDS011;4157;48.074;9.952;2023-04-24T12:50:59;3.38;;;1.05;;
8232;SDS011;4157;48.074;9.952;2023-04-24T12:53:27;2.47;;;1.08;;
8232;SDS011;4157;48.074;9.952;2023-04-24T12:55:56;3.58;;;0.90;;
8232;SDS011;4157;48.074;9.952;2023-04-24T12:58:24;3.45;;;1.20;;
8232;SDS011;4157;48.074;9.952;2023-04-24T13:00:52;4.18;;;1.23;;
8232;SDS011;4157;48.074;9.952;2023-04-24T13:03:19;3.33;;;1.00;;
8232;SDS011;4157;48.074;9.952;2023-04-24T13:05:48;2.88;;;1.10;;
8232;SDS011;4157;48.074;9.952;2023-04-24T13:08:17;3.63;;;1.20;;
8232;SDS011;4157;48.074;9.952;2023-04-24T13:10:44;3.03;;;1.20;;
8232;SDS011;4157;48.074;9.952;2023-04-24T13:13:12;3.35;;;1.27;;
8232;SDS011;4157;48.074;9.952;2023-04-24T13:15:40;5.05;;;1.25;;
8232;SDS011;4157;48.074;9.952;2023-04-24T13:18:08;2.90;;;1.20;;
8232;SDS011;4157;48.074;9.952;2023-04-24T13:20:36;3.45;;;1.30;;
8232;SDS011;4157;48.074;9.952;2023-04-24T13:23:03;2.90;;;1.20;;
8232;SDS011;4157;48.074;9.952;2023-04-24T13:25:34;3.20;;;1.40;;
8232;SDS011;4157;48.074;9.952;2023-04-24T13:28:02;4.05;;;1.08;;
8232;SDS011;4157;48.074;9.952;2023-04-24T13:30:30;2.85;;;1.48;;
8232;SDS011;4157;48.074;9.952;2023-04-24T13:32:58;2.75;;;1.20;;
8232;SDS011;4157;48.074;9.952;2023-04-24T13:35:26;2.78;;;1.10;;
8232;SDS011;4157;48.074;9.952;2023-04-24T13:37:54;1.92;;;0.80;;
8232;SDS011;4157;48.074;9.952;2023-04-24T13:40:21;2.28;;;1.02;;
8232;SDS011;4157;48.074;9.952;2023-04-24T13:42:50;3.85;;;1.20;;
8232;SDS011;4157;48.074;9.952;2023-04-24T13:45:18;4.60;;;0.93;;
8232;SDS011;4157;48.074;9.952;2023-04-24T13:47:46;3.25;;;1.00;;
8232;SDS011;4157;48.074;9.952;2023-04-24T13:50:14;2.95;;;0.88;;
8232;SDS011;4157;48.074;9.952;2023-04-24T13:52:41;2.88;;;1.05;;
8232;SDS011;4157;48.074;9.952;2023-04-24T13:55:09;2.75;;;0.93;;
8232;SDS011;4157;48.074;9.952;2023-04-24T13:57:37;1.25;;;0.70;;
8232;SDS011;4157;48.074;9.952;2023-04-24T14:00:08;2.13;;;0.80;;
8232;SDS011;4157;48.074;9.952;2023-04-24T14:02:36;3.58;;;1.08;;
8232;SDS011;4157;48.074;9.952;2023-04-24T14:05:04;2.45;;;0.82;;
8232;SDS011;4157;48.074;9.952;2023-04-24T14:07:32;2.60;;;1.00;;
8232;SDS011;4157;48.074;9.952;2023-04-24T14:10:00;1.80;;;0.70;;
8232;SDS011;4157;48.074;9.952;2023-04-24T14:12:27;2.25;;;0.90;;
8232;SDS011;4157;48.074;9.952;2023-04-24T14:14:55;1.90;;;0.70;;
8232;SDS011;4157;48.074;9.952;2023-04-24T14:17:24;2.75;;;0.90;;
8232;SDS011;4157;48.074;9.952;2023-04-24T14:19:52;1.77;;;0.85;;
8232;SDS011;4157;48.074;9.952;2023-04-24T14:22:21;3.35;;;1.15;;
8232;SDS011;4157;48.074;9.952;2023-04-24T14:24:49;1.65;;;0.80;;
8232;SDS011;4157;48.074;9.952;2023-04-24T14:27:17;1.92;;;0.80;;
8232;SDS011;4157;48.074;9.952;2023-04-24T14:29:44;1.20;;;0.80;;
8232;SDS011;4157;48.074;9.952;2023-04-24T14:32:12;2.42;;;0.90;;
8232;SDS011;4157;48.074;9.952;2023-04-24T14:34:42;1.85;;;0.75;;
8232;SDS011;4157;48.074;9.952;2023-04-24T14:37:10;5.00;;;1.42;;
8232;SDS011;4157;48.074;9.952;2023-04-24T14:39:38;5.28;;;1.88;;
8232;SDS011;4157;48.074;9.952;2023-04-24T14:42:06;3.00;;;1.02;;
8232;SDS011;4157;48.074;9.952;2023-04-24T14:44:33;3.08;;;1.27;;
8232;SDS011;4157;48.074;9.952;2023-04-24T14:47:01;2.45;;;0.95;;
8232;SDS011;4157;48.074;9.952;2023-04-24T14:49:29;3.08;;;1.30;;
8232;SDS011;4157;48.074;9.952;2023-04-24T14:51:58;3.33;;;1.55;;
8232;SDS011;4157;48.074;9.952;2023-04-24T14:54:26;3.00;;;1.00;;
8232;SDS011;4157;48.074;9.952;2023-04-24T14:56:54;1.92;;;0.90;;
8232;SDS011;4157;48.074;9.952;2023-04-24T14:59:22;2.58;;;0.90;;
8232;SDS011;4157;48.074;9.952;2023-04-24T15:01:50;1.75;;;0.90;;
8232;SDS011;4157;48.074;9.952;2023-04-24T15:04:18;3.13;;;1.00;;
8232;SDS011;4157;48.074;9.952;2023-04-24T15:06:47;3.25;;;0.95;;
8232;SDS011;4157;48.074;9.952;2023-04-24T15:09:16;3.28;;;0.90;;
8232;SDS011;4157;48.074;9.952;2023-04-24T15:11:44;3.83;;;1.50;;
8232;SDS011;4157;48.074;9.952;2023-04-24T15:14:12;3.08;;;1.00;;
8232;SDS011;4157;48.074;9.952;2023-04-24T15:16:39;2.45;;;1.13;;
8232;SDS011;4157;48.074;9.952;2023-04-24T15:19:07;2.22;;;1.00;;
8232;SDS011;4157;48.074;9.952;2023-04-24T15:21:35;2.90;;;0.93;;
8232;SDS011;4157;48.074;9.952;2023-04-24T15:24:03;1.92;;;0.98;;
8232;SDS011;4157;48.074;9.952;2023-04-24T15:26:33;1.30;;;0.70;;
8232;SDS011;4157;48.074;9.952;2023-04-24T15:29:01;2.08;;;0.90;;